createdAt,value
2022-12-24T00:01:41.183Z,5.97
2022-12-24T00:04:11.410Z,5.94
2022-12-24T00:06:39.504Z,5.92
2022-12-24T00:09:06.935Z,5.96
2022-12-24T00:11:34.169Z,5.98
2022-12-24T00:14:01.744Z,5.98
2022-12-24T00:16:29.033Z,5.97
2022-12-24T00:18:56.382Z,5.94
2022-12-24T00:21:23.603Z,5.93
2022-12-24T00:23:53.540Z,5.90
2022-12-24T00:26:20.905Z,5.90
2022-12-24T00:28:48.190Z,5.94
2022-12-24T00:31:18.889Z,5.97
2022-12-24T00:33:50.284Z,5.99
2022-12-24T00:36:21.610Z,5.99
2022-12-24T00:38:51.988Z,6.00
2022-12-24T00:41:28.637Z,5.98
2022-12-24T00:44:06.846Z,5.98
2022-12-24T00:46:35.233Z,5.94
2022-12-24T00:49:04.932Z,5.95
2022-12-24T00:51:33.133Z,5.96
2022-12-24T00:54:01.912Z,5.96
2022-12-24T00:56:31.603Z,5.96
2022-12-24T00:58:59.006Z,5.96
2022-12-24T01:01:27.621Z,6.02
2022-12-24T01:04:16.067Z,5.97
2022-12-24T01:06:44.184Z,5.97
2022-12-24T01:09:11.692Z,5.96
2022-12-24T01:11:39.326Z,5.98
2022-12-24T01:14:06.595Z,6.02
2022-12-24T01:16:34.075Z,6.02
2022-12-24T01:19:01.368Z,5.98
2022-12-24T01:21:31.520Z,5.96
2022-12-24T01:24:00.883Z,5.96
2022-12-24T01:26:28.023Z,5.98
2022-12-24T01:28:57.355Z,5.99
2022-12-24T01:31:24.706Z,5.98
2022-12-24T01:33:52.045Z,5.98
2022-12-24T01:36:19.195Z,5.99
2022-12-24T01:38:46.463Z,6.00
2022-12-24T01:41:42.143Z,6.00
2022-12-24T01:44:36.444Z,6.04
2022-12-24T01:47:21.456Z,6.06
2022-12-24T01:49:58.138Z,6.07
2022-12-24T01:52:34.448Z,6.06
2022-12-24T01:55:12.495Z,6.06
2022-12-24T01:57:56.964Z,6.05
2022-12-24T02:00:24.483Z,6.04
2022-12-24T02:02:54.016Z,6.02
2022-12-24T02:05:51.886Z,6.03
2022-12-24T02:08:20.434Z,5.98
2022-12-24T02:10:49.197Z,5.99
2022-12-24T02:13:20.676Z,6.02
2022-12-24T02:16:22.582Z,6.02
2022-12-24T02:19:32.301Z,6.05
2022-12-24T02:22:27.036Z,6.05
2022-12-24T02:25:51.759Z,6.00
2022-12-24T02:29:23.172Z,6.02
2022-12-24T02:32:06.006Z,6.07
2022-12-24T02:34:58.823Z,6.05
2022-12-24T02:37:36.721Z,6.02
2022-12-24T02:40:19.706Z,6.00
2022-12-24T02:42:55.488Z,5.99
2022-12-24T02:45:29.899Z,5.98
2022-12-24T02:47:57.682Z,5.97
2022-12-24T02:50:26.425Z,5.97
2022-12-24T02:52:54.116Z,5.95
2022-12-24T02:55:47.159Z,5.97
2022-12-24T02:59:11.856Z,5.99
2022-12-24T03:02:09.392Z,5.99
2022-12-24T03:05:40.331Z,6.01
2022-12-24T03:08:56.372Z,6.04
2022-12-24T03:11:23.605Z,6.01
2022-12-24T03:13:52.937Z,6.00
2022-12-24T03:16:27.705Z,6.04
2022-12-24T03:18:57.874Z,6.02
2022-12-24T03:21:32.431Z,6.02
2022-12-24T03:24:00.503Z,6.00
2022-12-24T03:26:31.592Z,6.03
2022-12-24T03:28:59.615Z,6.06
2022-12-24T03:31:26.932Z,6.09
2022-12-24T03:33:54.141Z,6.10
2022-12-24T03:36:21.330Z,6.12
2022-12-24T03:38:48.583Z,6.11
2022-12-24T03:41:15.939Z,6.10
2022-12-24T03:43:43.169Z,6.08
2022-12-24T03:46:10.443Z,6.06
2022-12-24T03:48:37.851Z,6.03
2022-12-24T03:51:05.581Z,6.08
2022-12-24T03:53:32.840Z,6.08
2022-12-24T03:56:00.118Z,6.07
2022-12-24T03:58:27.447Z,6.05
2022-12-24T04:00:54.768Z,6.07
2022-12-24T04:03:22.185Z,6.03
2022-12-24T04:06:07.460Z,6.02
2022-12-24T04:08:36.688Z,5.99
2022-12-24T04:11:14.202Z,5.98
2022-12-24T04:13:41.491Z,6.04
2022-12-24T04:16:13.755Z,6.06
2022-12-24T04:18:42.208Z,6.07
2022-12-24T04:21:10.829Z,6.08
2022-12-24T04:23:41.214Z,6.06
2022-12-24T04:26:12.425Z,6.06
2022-12-24T04:28:41.621Z,6.03
2022-12-24T04:31:15.519Z,6.02
2022-12-24T04:33:44.211Z,6.00
2022-12-24T04:36:19.500Z,6.02
2022-12-24T04:38:48.530Z,6.03
2022-12-24T04:41:24.272Z,6.03
2022-12-24T04:43:54.346Z,6.03
2022-12-24T04:46:33.589Z,5.99
2022-12-24T04:49:00.907Z,6.01
2022-12-24T04:51:29.381Z,6.06
2022-12-24T04:53:57.196Z,6.05
2022-12-24T04:56:29.631Z,6.04
2022-12-24T04:58:58.271Z,6.01
2022-12-24T05:01:33.153Z,5.98
2022-12-24T05:04:01.552Z,6.04
2022-12-24T05:06:34.033Z,6.08
2022-12-24T05:09:01.715Z,6.07
2022-12-24T05:11:29.784Z,6.04
2022-12-24T05:13:57.164Z,6.04
2022-12-24T05:16:25.183Z,6.02
2022-12-24T05:18:52.906Z,6.02
2022-12-24T05:21:25.768Z,6.02
2022-12-24T05:24:12.129Z,6.06
2022-12-24T05:26:53.421Z,6.07
2022-12-24T05:29:21.120Z,6.02
2022-12-24T05:31:48.249Z,6.06
2022-12-24T05:34:16.983Z,6.08
2022-12-24T05:36:45.144Z,6.09
2022-12-24T05:39:18.379Z,6.11
2022-12-24T05:41:46.385Z,6.10
2022-12-24T05:44:16.003Z,6.03
2022-12-24T05:46:44.411Z,5.97
2022-12-24T05:49:11.856Z,5.95
2022-12-24T05:51:40.310Z,6.00
2022-12-24T05:54:08.254Z,6.04
2022-12-24T05:56:35.424Z,6.06
2022-12-24T05:59:02.746Z,6.05
2022-12-24T06:01:29.920Z,6.04
2022-12-24T06:03:57.837Z,5.97
2022-12-24T06:06:28.427Z,6.01
2022-12-24T06:08:55.964Z,6.04
2022-12-24T06:11:27.100Z,6.03
2022-12-24T06:13:54.715Z,5.99
2022-12-24T06:16:24.302Z,5.98
2022-12-24T06:18:52.132Z,5.96
2022-12-24T06:21:20.102Z,5.97
2022-12-24T06:23:47.866Z,6.00
2022-12-24T06:26:20.361Z,6.00
2022-12-24T06:28:49.871Z,6.03
2022-12-24T06:31:22.468Z,6.04
2022-12-24T06:33:51.100Z,6.03
2022-12-24T06:36:23.811Z,6.04
2022-12-24T06:38:54.347Z,6.06
2022-12-24T06:41:22.757Z,6.04
2022-12-24T06:43:52.921Z,6.03
2022-12-24T06:46:21.336Z,6.04
2022-12-24T06:48:48.882Z,6.03
2022-12-24T06:51:19.791Z,5.96
2022-12-24T06:53:50.535Z,5.94
2022-12-24T06:56:20.584Z,5.95
2022-12-24T06:58:48.682Z,5.96
2022-12-24T07:01:19.629Z,5.97
2022-12-24T07:03:47.967Z,5.97
2022-12-24T07:06:29.698Z,5.96
2022-12-24T07:08:57.340Z,5.99
2022-12-24T07:11:26.570Z,6.04
2022-12-24T07:13:53.944Z,6.04
2022-12-24T07:16:21.726Z,6.05
2022-12-24T07:18:49.054Z,6.09
2022-12-24T07:21:16.252Z,6.08
2022-12-24T07:23:43.885Z,6.08
2022-12-24T07:26:11.553Z,6.07
2022-12-24T07:28:38.845Z,6.12
2022-12-24T07:31:06.306Z,6.12
2022-12-24T07:33:33.569Z,6.15
2022-12-24T07:36:06.724Z,6.19
2022-12-24T07:38:35.148Z,6.16
2022-12-24T07:41:02.450Z,6.16
2022-12-24T07:43:30.038Z,6.24
2022-12-24T07:45:58.557Z,6.29
2022-12-24T07:48:28.806Z,6.27
2022-12-24T07:50:57.536Z,6.27
2022-12-24T07:53:27.903Z,6.34
2022-12-24T07:55:55.642Z,6.40
2022-12-24T07:58:23.571Z,6.39
2022-12-24T08:00:58.184Z,6.38
2022-12-24T08:03:25.872Z,6.34
2022-12-24T08:05:53.691Z,6.28
2022-12-24T08:08:21.502Z,6.24
2022-12-24T08:10:48.832Z,6.37
2022-12-24T08:13:17.257Z,6.44
2022-12-24T08:15:45.542Z,6.45
2022-12-24T08:18:12.745Z,6.45
2022-12-24T08:20:41.661Z,6.48
2022-12-24T08:23:09.567Z,6.49
2022-12-24T08:25:37.687Z,6.55
2022-12-24T08:28:05.929Z,6.55
2022-12-24T08:30:34.318Z,6.54
2022-12-24T08:33:02.110Z,6.45
2022-12-24T08:35:29.351Z,6.51
2022-12-24T08:37:56.890Z,6.57
2022-12-24T08:40:24.119Z,6.57
2022-12-24T08:42:51.542Z,6.57
2022-12-24T08:45:19.183Z,6.56
2022-12-24T08:47:47.225Z,6.59
2022-12-24T08:50:14.612Z,6.60
2022-12-24T08:52:41.851Z,6.59
2022-12-24T08:55:09.447Z,6.53
2022-12-24T08:57:37.851Z,6.51
2022-12-24T09:00:08.030Z,6.53
2022-12-24T09:02:36.391Z,6.48
2022-12-24T09:05:04.659Z,6.48
2022-12-24T09:07:31.855Z,6.57
2022-12-24T09:09:59.076Z,6.59
2022-12-24T09:12:26.280Z,6.68
2022-12-24T09:14:59.614Z,6.66
2022-12-24T09:17:30.212Z,6.65
2022-12-24T09:19:57.401Z,6.64
2022-12-24T09:22:24.543Z,6.65
2022-12-24T09:24:54.784Z,6.60
2022-12-24T09:27:22.644Z,6.66
2022-12-24T09:29:49.972Z,6.72
2022-12-24T09:32:17.500Z,6.74
2022-12-24T09:34:44.959Z,6.83
2022-12-24T09:37:12.126Z,6.90
2022-12-24T09:39:39.328Z,6.84
2022-12-24T09:42:53.822Z,6.86
2022-12-24T09:45:36.014Z,6.88
2022-12-24T09:48:16.027Z,6.96
2022-12-24T09:51:12.037Z,7.03
2022-12-24T09:54:20.762Z,7.14
2022-12-24T09:56:49.477Z,7.24
2022-12-24T09:59:41.308Z,7.31
2022-12-24T10:02:19.642Z,7.31
2022-12-24T10:04:49.127Z,7.27
2022-12-24T10:07:55.007Z,7.23
2022-12-24T10:10:52.147Z,7.22
2022-12-24T10:14:03.916Z,7.30
2022-12-24T10:17:15.614Z,7.29
2022-12-24T10:20:33.028Z,7.34
2022-12-24T10:23:49.216Z,7.34
2022-12-24T10:26:28.020Z,7.41
2022-12-24T10:29:06.373Z,7.44
2022-12-24T10:31:40.301Z,7.51
2022-12-24T10:34:25.115Z,7.52
2022-12-24T10:36:52.363Z,7.51
2022-12-24T10:39:24.662Z,7.48
2022-12-24T10:41:57.733Z,7.58
2022-12-24T10:44:31.215Z,7.64
2022-12-24T10:46:59.447Z,7.56
2022-12-24T10:49:39.796Z,7.61
2022-12-24T10:52:15.660Z,7.64
2022-12-24T10:55:17.852Z,7.61
2022-12-24T10:58:02.908Z,7.61
2022-12-24T11:00:35.963Z,7.64
2022-12-24T11:03:13.171Z,7.71
2022-12-24T11:05:41.015Z,7.63
2022-12-24T11:08:20.063Z,7.61
2022-12-24T11:11:08.588Z,7.67
2022-12-24T11:13:46.463Z,7.70
2022-12-24T11:16:31.041Z,7.78
2022-12-24T11:19:04.094Z,7.88
2022-12-24T11:21:40.722Z,7.92
2022-12-24T11:24:14.062Z,7.98
2022-12-24T11:26:44.505Z,8.02
2022-12-24T11:29:29.960Z,8.08
2022-12-24T11:32:23.427Z,7.95
2022-12-24T11:34:50.679Z,7.92
2022-12-24T11:37:24.627Z,7.86
2022-12-24T11:39:59.588Z,7.81
2022-12-24T11:42:38.045Z,7.78
2022-12-24T11:45:19.796Z,7.74
2022-12-24T11:47:47.169Z,7.78
2022-12-24T11:50:31.776Z,7.74
2022-12-24T11:53:19.119Z,7.73
2022-12-24T11:56:02.081Z,7.72
2022-12-24T11:58:59.972Z,7.74
2022-12-24T12:02:02.389Z,7.76
2022-12-24T12:04:34.818Z,7.82
2022-12-24T12:07:19.195Z,7.89
2022-12-24T12:09:59.653Z,7.91
2022-12-24T12:12:34.841Z,7.91
2022-12-24T12:15:26.070Z,7.94
2022-12-24T12:18:42.519Z,7.97
2022-12-24T12:21:23.568Z,8.07
2022-12-24T12:24:04.549Z,8.11
2022-12-24T12:26:33.250Z,8.10
2022-12-24T12:29:32.215Z,8.12
2022-12-24T12:32:17.089Z,8.10
2022-12-24T12:35:16.782Z,8.13
2022-12-24T12:37:56.059Z,8.18
2022-12-24T12:40:41.411Z,8.22
2022-12-24T12:43:38.053Z,8.17
2022-12-24T12:46:46.543Z,8.23
2022-12-24T12:49:43.865Z,8.31
2022-12-24T12:52:49.175Z,8.34
2022-12-24T12:55:43.351Z,8.27
2022-12-24T12:58:27.910Z,8.10
2022-12-24T13:01:15.661Z,8.02
2022-12-24T13:04:16.380Z,7.92
2022-12-24T13:07:34.255Z,7.91
2022-12-24T13:10:37.750Z,7.87
2022-12-24T13:13:53.950Z,7.95
2022-12-24T13:16:45.138Z,7.89
2022-12-24T13:19:42.478Z,7.88
2022-12-24T13:22:17.703Z,7.86
2022-12-24T13:24:54.753Z,7.82
2022-12-24T13:27:29.345Z,7.79
2022-12-24T13:30:32.818Z,7.76
2022-12-24T13:33:00.174Z,7.78
2022-12-24T13:35:37.617Z,7.73
2022-12-24T13:38:28.397Z,7.73
2022-12-24T13:40:56.353Z,7.78
2022-12-24T13:43:23.494Z,7.73
2022-12-24T13:45:52.168Z,7.78
2022-12-24T13:48:33.661Z,7.78
2022-12-24T13:51:20.510Z,7.73
2022-12-24T13:53:49.725Z,7.74
2022-12-24T13:56:16.783Z,7.79
2022-12-24T13:59:34.543Z,7.81
2022-12-24T14:02:06.077Z,7.73
2022-12-24T14:04:36.457Z,7.70
2022-12-24T14:07:05.523Z,7.66
2022-12-24T14:09:33.932Z,7.62
2022-12-24T14:12:04.090Z,7.60
2022-12-24T14:14:40.635Z,7.62
2022-12-24T14:17:26.477Z,7.59
2022-12-24T14:20:00.669Z,7.59
2022-12-24T14:22:56.875Z,7.61
2022-12-24T14:25:24.301Z,7.59
2022-12-24T14:28:04.560Z,7.57
2022-12-24T14:30:32.474Z,7.52
2022-12-24T14:32:59.792Z,7.50
2022-12-24T14:35:37.379Z,7.47
2022-12-24T14:38:18.702Z,7.48
2022-12-24T14:41:19.183Z,7.46
2022-12-24T14:44:00.376Z,7.46
2022-12-24T14:46:58.758Z,7.45
2022-12-24T14:50:21.779Z,7.46
2022-12-24T14:53:48.636Z,7.46
2022-12-24T14:56:20.974Z,7.42
2022-12-24T14:58:49.272Z,7.42
2022-12-24T15:01:30.957Z,7.41
2022-12-24T15:04:06.116Z,7.41
2022-12-24T15:06:40.136Z,7.40
2022-12-24T15:09:26.894Z,7.40
2022-12-24T15:12:03.890Z,7.38
2022-12-24T15:14:41.792Z,7.36
2022-12-24T15:17:12.378Z,7.33
2022-12-24T15:19:45.160Z,7.32
2022-12-24T15:22:27.598Z,7.31
2022-12-24T15:24:55.408Z,7.28
2022-12-24T15:27:27.599Z,7.30
2022-12-24T15:29:58.249Z,7.33
2022-12-24T15:32:25.741Z,7.31
2022-12-24T15:34:55.517Z,7.30
2022-12-24T15:37:32.336Z,7.31
2022-12-24T15:40:22.959Z,7.26
2022-12-24T15:42:51.448Z,7.27
2022-12-24T15:45:30.542Z,7.27
2022-12-24T15:48:10.065Z,7.23
2022-12-24T15:50:46.109Z,7.26
2022-12-24T15:53:30.967Z,7.26
2022-12-24T15:56:11.567Z,7.23
2022-12-24T15:58:45.621Z,7.23
2022-12-24T16:01:16.159Z,7.25
2022-12-24T16:03:52.137Z,7.21
2022-12-24T16:06:22.035Z,7.22
2022-12-24T16:08:51.004Z,7.23
2022-12-24T16:11:46.228Z,7.23
2022-12-24T16:14:20.195Z,7.20
2022-12-24T16:16:52.781Z,7.22
2022-12-24T16:19:39.744Z,7.22
2022-12-24T16:22:26.430Z,7.22
2022-12-24T16:24:55.480Z,7.22
2022-12-24T16:27:23.000Z,7.21
2022-12-24T16:29:50.366Z,7.21
2022-12-24T16:32:35.263Z,7.19
2022-12-24T16:35:07.474Z,7.17
2022-12-24T16:37:35.749Z,7.14
2022-12-24T16:40:03.058Z,7.14
2022-12-24T16:42:50.623Z,7.15
2022-12-24T16:45:17.858Z,7.13
2022-12-24T16:47:45.026Z,7.15
2022-12-24T16:50:16.801Z,7.15
2022-12-24T16:52:44.700Z,7.13
2022-12-24T16:55:15.353Z,7.12
2022-12-24T16:57:44.073Z,7.10
2022-12-24T17:00:22.068Z,7.11
2022-12-24T17:02:50.229Z,7.10
2022-12-24T17:05:18.604Z,7.10
2022-12-24T17:07:45.878Z,7.09
2022-12-24T17:10:14.449Z,7.09
2022-12-24T17:12:43.918Z,7.09
2022-12-24T17:15:11.618Z,7.08
2022-12-24T17:17:38.965Z,7.08
2022-12-24T17:20:07.730Z,7.09
2022-12-24T17:22:36.237Z,7.09
2022-12-24T17:25:05.324Z,7.10
2022-12-24T17:27:32.959Z,7.10
2022-12-24T17:30:00.310Z,7.10
2022-12-24T17:32:27.598Z,7.10
2022-12-24T17:34:54.802Z,7.08
2022-12-24T17:37:22.084Z,7.10
2022-12-24T17:39:49.372Z,7.08
2022-12-24T17:42:16.561Z,7.07
2022-12-24T17:44:43.975Z,7.04
2022-12-24T17:47:11.311Z,7.04
2022-12-24T17:49:38.700Z,7.03
2022-12-24T17:52:06.103Z,7.02
2022-12-24T17:54:33.535Z,7.02
2022-12-24T17:57:01.714Z,6.99
2022-12-24T17:59:28.955Z,7.01
2022-12-24T18:01:56.429Z,6.98
2022-12-24T18:04:23.668Z,7.01
2022-12-24T18:06:52.005Z,7.04
2022-12-24T18:09:22.156Z,7.02
2022-12-24T18:11:49.330Z,7.01
2022-12-24T18:14:16.522Z,7.01
2022-12-24T18:16:44.896Z,6.99
2022-12-24T18:19:12.612Z,6.99
2022-12-24T18:21:41.049Z,6.99
2022-12-24T18:24:09.121Z,7.00
2022-12-24T18:26:36.448Z,7.01
2022-12-24T18:29:04.724Z,7.01
2022-12-24T18:31:34.032Z,6.99
2022-12-24T18:34:05.489Z,6.96
2022-12-24T18:36:33.671Z,6.96
2022-12-24T18:39:01.622Z,6.96
2022-12-24T18:41:31.346Z,6.97
2022-12-24T18:43:59.634Z,6.96
2022-12-24T18:46:32.476Z,6.97
2022-12-24T18:49:01.535Z,6.97
2022-12-24T18:51:35.317Z,6.97
2022-12-24T18:54:04.553Z,6.98
2022-12-24T18:56:32.315Z,6.97
2022-12-24T18:59:03.033Z,6.97
2022-12-24T19:01:34.933Z,6.97
2022-12-24T19:04:02.760Z,6.97
2022-12-24T19:06:30.343Z,6.97
2022-12-24T19:08:59.740Z,6.96
2022-12-24T19:11:32.260Z,6.98
2022-12-24T19:14:01.361Z,6.99
2022-12-24T19:16:33.226Z,6.98
2022-12-24T19:19:02.544Z,6.96
2022-12-24T19:21:29.784Z,6.98
2022-12-24T19:23:57.176Z,6.97
2022-12-24T19:26:25.033Z,6.97
2022-12-24T19:28:53.393Z,6.98
2022-12-24T19:31:25.744Z,7.02
2022-12-24T19:33:56.955Z,7.05
2022-12-24T19:36:29.225Z,7.04
2022-12-24T19:38:58.493Z,7.03
2022-12-24T19:41:31.047Z,7.01
2022-12-24T19:44:02.061Z,7.01
2022-12-24T19:46:36.674Z,6.99
2022-12-24T19:49:08.026Z,6.98
2022-12-24T19:51:35.920Z,6.99
2022-12-24T19:54:06.133Z,7.01
2022-12-24T19:56:33.837Z,7.05
2022-12-24T19:59:03.141Z,7.05
2022-12-24T20:01:34.661Z,7.05
2022-12-24T20:04:03.871Z,7.02
2022-12-24T20:06:35.086Z,6.99
2022-12-24T20:09:07.180Z,6.99
2022-12-24T20:11:35.477Z,6.96
2022-12-24T20:14:05.702Z,6.97
2022-12-24T20:16:34.187Z,7.01
2022-12-24T20:19:06.190Z,7.04
2022-12-24T20:21:34.254Z,7.01
2022-12-24T20:24:01.594Z,6.98
2022-12-24T20:26:30.038Z,6.99
2022-12-24T20:29:02.735Z,7.01
2022-12-24T20:31:30.881Z,6.97
2022-12-24T20:34:01.560Z,6.99
2022-12-24T20:36:31.105Z,7.01
2022-12-24T20:39:00.230Z,7.04
2022-12-24T20:41:30.241Z,7.05
2022-12-24T20:44:01.923Z,7.05
2022-12-24T20:46:31.034Z,7.04
2022-12-24T20:48:58.596Z,7.03
2022-12-24T20:51:28.509Z,7.04
2022-12-24T20:53:59.791Z,7.05
2022-12-24T20:56:27.492Z,7.02
2022-12-24T20:58:54.986Z,7.04
2022-12-24T21:01:26.166Z,7.01
2022-12-24T21:03:56.763Z,6.99
2022-12-24T21:06:25.205Z,7.00
2022-12-24T21:08:54.167Z,7.02
2022-12-24T21:11:41.429Z,7.03
2022-12-24T21:14:09.669Z,7.05
2022-12-24T21:16:39.249Z,7.03
2022-12-24T21:19:10.148Z,7.03
2022-12-24T21:21:38.118Z,7.04
2022-12-24T21:24:06.387Z,7.04
2022-12-24T21:26:34.487Z,7.02
2022-12-24T21:29:04.440Z,7.01
2022-12-24T21:31:32.628Z,7.05
2022-12-24T21:34:00.097Z,7.07
2022-12-24T21:36:27.284Z,7.04
2022-12-24T21:38:55.087Z,7.03
2022-12-24T21:41:23.669Z,7.05
2022-12-24T21:43:50.952Z,7.03
2022-12-24T21:46:24.852Z,7.03
2022-12-24T21:49:13.801Z,7.03
2022-12-24T21:51:44.024Z,7.00
2022-12-24T21:54:23.465Z,6.95
2022-12-24T21:57:12.611Z,6.95
2022-12-24T21:59:40.204Z,6.99
2022-12-24T22:02:13.997Z,6.96
2022-12-24T22:04:42.128Z,6.95
2022-12-24T22:07:46.251Z,6.95
2022-12-24T22:10:33.034Z,6.97
2022-12-24T22:13:05.994Z,6.96
2022-12-24T22:15:35.136Z,6.97
2022-12-24T22:18:02.985Z,6.96
2022-12-24T22:20:30.153Z,6.98
2022-12-24T22:22:57.311Z,6.96
2022-12-24T22:25:24.541Z,6.97
2022-12-24T22:27:52.060Z,6.96
2022-12-24T22:30:19.509Z,6.94
2022-12-24T22:32:47.087Z,6.94
2022-12-24T22:35:14.522Z,6.94
2022-12-24T22:37:41.760Z,6.93
2022-12-24T22:40:10.882Z,6.95
2022-12-24T22:42:40.888Z,6.94
2022-12-24T22:45:12.571Z,6.93
2022-12-24T22:47:43.029Z,6.92
2022-12-24T22:50:10.845Z,6.96
2022-12-24T22:52:38.173Z,6.94
2022-12-24T22:55:06.489Z,6.91
2022-12-24T22:57:33.725Z,6.93
2022-12-24T23:00:00.958Z,6.93
2022-12-24T23:02:29.183Z,6.95
2022-12-24T23:04:56.932Z,6.98
2022-12-24T23:07:24.734Z,6.99
2022-12-24T23:09:51.938Z,6.98
2022-12-24T23:12:39.053Z,6.96
2022-12-24T23:15:07.472Z,6.97
2022-12-24T23:17:34.763Z,6.98
2022-12-24T23:20:03.779Z,6.98
2022-12-24T23:22:31.034Z,6.98
2022-12-24T23:24:58.332Z,6.96
2022-12-24T23:27:25.591Z,6.97
2022-12-24T23:29:52.756Z,6.97
2022-12-24T23:32:19.918Z,6.97
2022-12-24T23:34:47.068Z,6.95
2022-12-24T23:37:14.198Z,6.94
2022-12-24T23:39:41.480Z,6.92
2022-12-24T23:42:08.608Z,6.91
2022-12-24T23:44:35.740Z,6.94
2022-12-24T23:47:03.003Z,6.95
2022-12-24T23:49:30.235Z,6.94
2022-12-24T23:51:57.404Z,6.93
2022-12-24T23:54:24.649Z,6.95
2022-12-24T23:56:51.955Z,6.96
2022-12-24T23:59:19.135Z,6.93
